Strona główna
METAR-TAF:

METAR-TAF

Lotnisko :

Port lotniczy Ubon Ratchathani

Ubon Ratchathani, Tajlandia

Szerokość geograficzna: 15-15N, Długość geograficzna: 104-52E, wysokość: 123 m

Aktualna obserwacja pogody

Raport powstał 1 godzina i 8 minut temu, godzina 00:00 UTC
Wiatr 4 kt od północno-północny wschód, zmienny między północ i wschodnio-północny wschód
Temperatura 18°C
Wilgotność 83%
Ciśnienie 1017 hPa
Widzialność: 9000 m

METAR: VTUU 240000Z 03004KT 010V070 9000 NSC 18/15 Q1017 NOSIG

czas: 08:08 (01:08 UTC)

Prognoza

Raport powstał 2 godziny i 8 minut temu, godzina 23:00 UTC
Prognoza ważna od 24 godzina 00 UTC do 24 godzina 24 UTC
Wiatr 5 kt od północny wschód
Widzialność: 9000 m

TAF: VTUU 232300Z 2400/2424 04005KT 9000 NSC

Obserwacja i prognoza pogody dla ponad 4000 lotnisk (raport METAR i TAF).

Dostępne stacje oznaczono żółtymi i czerwonymi punktami na mapie.

Najedź kursorem aby zobaczyć nazwę stacji.

Kliknij aby zobaczyć obserwacje i prognozy pogody.

Aby zmienić mapę: kliknij na zielony przycisk z czarnym krzyżykiem, aby powiększyć; na zielony przycisk z myślnikiem, aby pomniejszyć; na zielone strzałki, aby przejść do map sąsiednich.


METAR-TAF: